Terminal Aerodrome Forecast
Issued by NWS

Home | Current Version | Previous Version | Text Only | Print | Product List | Glossary On
Versions: 1 2 3 4 5 6 7 8 9 10 11 12
000
FTUS45 KGJT 101736
TAFMTJ
TAF
KMTJ 101736Z 1018/1118 15004KT P6SM SCT120 BKN200
     FM102100 25004KT P6SM SCT080 BKN150
     FM110000 15006KT P6SM VCSH OVC060
     FM110400 16006KT P6SM -SN OVC035
     FM110900 22006KT 4SM -SN BR OVC025
     FM111400 24006KT P6SM -SN OVC035=

USA.gov is the U.S. government's official web portal to all federal, state and local government web resources and services.